Time;durP1;ratioP1;P1;durP2;ratioP2;P2;SDS_P1;SDS_P2;PMS_P1;PMS_P2;Temp;Humidity;BMP_temperature;BMP_pressure;BME280_temperature;BME280_humidity;BME280_pressure;Samples;Min_cycle;Max_cycle;Signal;HPM_P1;HPM_P2
2023/01/28 00:01:50;;;;;;;0.30;0.30;;;;;;;11.21;47.70;103058.09;4994118;28;20045;-71
2023/01/28 00:04:15;;;;;;;0.28;0.28;;;;;;;11.07;47.94;103069.59;4994345;28;20034;-71
2023/01/28 00:06:41;;;;;;;0.40;0.40;;;;;;;10.82;48.22;103065.31;4994818;28;20066;-71
2023/01/28 00:09:07;;;;;;;0.30;0.30;;;;;;;10.91;48.20;103062.44;4994315;28;20038;-71
2023/01/28 00:11:32;;;;;;;0.20;0.20;;;;;;;9.94;50.00;103060.84;4994430;28;20446;-72
2023/01/28 00:13:58;;;;;;;0.20;0.20;;;;;;;9.27;51.87;103070.78;4994600;28;20061;-71
2023/01/28 00:16:25;;;;;;;0.22;0.22;;;;;;;10.52;49.47;103077.66;4996756;28;20403;-71
2023/01/28 00:18:51;;;;;;;0.30;0.30;;;;;;;11.07;47.06;103073.13;4994811;28;20117;-70
2023/01/28 00:21:17;;;;;;;0.30;0.30;;;;;;;10.97;47.80;103071.66;4989687;28;20606;-70
2023/01/28 00:23:48;;;;;;;0.30;0.30;;;;;;;10.93;47.89;103076.53;4993028;28;20463;-70
2023/01/28 00:26:14;;;;;;;0.20;0.20;;;;;;;11.04;47.37;103076.19;4994485;28;20053;-71
2023/01/28 00:28:40;;;;;;;0.20;0.20;;;;;;;11.17;47.23;103075.63;4993875;28;20023;-70
2023/01/28 00:31:08;;;;;;;0.30;0.30;;;;;;;11.20;47.22;103078.78;4994612;28;20038;-70
2023/01/28 00:33:34;;;;;;;0.40;0.40;;;;;;;11.19;47.22;103078.97;4995082;28;20062;-71
2023/01/28 00:36:02;;;;;;;0.30;0.30;;;;;;;11.06;47.57;103076.84;4994368;28;20061;-70
2023/01/28 00:38:28;;;;;;;0.30;0.30;;;;;;;10.67;47.77;103077.81;4994620;28;20042;-70
2023/01/28 00:40:53;;;;;;;0.22;0.22;;;;;;;10.67;47.90;103069.72;4994117;28;20402;-71
2023/01/28 00:43:19;;;;;;;0.20;0.20;;;;;;;11.14;46.99;103066.06;4994311;28;20041;-70
2023/01/28 00:45:44;;;;;;;0.20;0.20;;;;;;;11.20;47.35;103065.34;4994777;28;20045;-71
2023/01/28 00:48:10;;;;;;;0.25;0.25;;;;;;;11.14;47.50;103063.38;4994074;28;20038;-71
2023/01/28 00:50:35;;;;;;;0.30;0.30;;;;;;;11.29;46.84;103053.53;4994389;28;20066;-71
2023/01/28 00:53:01;;;;;;;0.30;0.30;;;;;;;11.13;47.25;103059.00;4993865;28;20041;-70
2023/01/28 00:55:27;;;;;;;0.28;0.28;;;;;;;11.29;47.55;103055.38;4993675;28;20057;-70
2023/01/28 00:57:53;;;;;;;0.20;0.20;;;;;;;11.31;47.30;103054.19;4994416;28;20041;-72
2023/01/28 01:00:24;;;;;;;0.38;0.38;;;;;;;10.90;47.70;103065.28;4992258;28;20049;-70
2023/01/28 01:02:50;;;;;;;0.38;0.38;;;;;;;11.10;48.22;103058.50;4993572;28;20050;-71
2023/01/28 01:05:16;;;;;;;0.40;0.40;;;;;;;11.20;47.81;103059.13;4993559;28;20049;-71
2023/01/28 01:07:41;;;;;;;0.30;0.30;;;;;;;10.98;47.95;103062.59;4993681;28;20027;-71
2023/01/28 01:10:10;;;;;;;0.40;0.40;;;;;;;11.01;48.09;103065.75;4994071;28;20411;-71
2023/01/28 01:12:35;;;;;;;0.35;0.35;;;;;;;11.34;47.26;103061.09;4998654;28;20494;-70
2023/01/28 01:15:01;;;;;;;0.28;0.28;;;;;;;11.14;47.81;103057.16;4994332;28;20096;-71
2023/01/28 01:17:29;;;;;;;0.40;0.40;;;;;;;11.25;47.34;103062.13;4994016;28;20039;-70
2023/01/28 01:19:54;;;;;;;0.40;0.40;;;;;;;11.17;47.38;103062.16;4993538;28;20080;-70
2023/01/28 01:22:20;;;;;;;0.50;0.50;;;;;;;10.90;47.86;103068.84;4992500;28;20034;-71
2023/01/28 01:24:46;;;;;;;0.32;0.32;;;;;;;10.82;48.27;103063.47;4993550;28;20045;-71
2023/01/28 01:27:12;;;;;;;0.10;0.10;;;;;;;10.76;47.92;103071.38;4992076;28;20518;-70
2023/01/28 01:29:38;;;;;;;0.30;0.30;;;;;;;10.91;47.39;103072.38;4993672;28;20085;-71
2023/01/28 01:32:04;;;;;;;0.30;0.30;;;;;;;10.68;47.80;103072.25;4993416;28;20053;-70
2023/01/28 01:34:29;;;;;;;0.30;0.30;;;;;;;10.70;47.49;103075.59;4993197;28;20517;-71
2023/01/28 01:36:55;;;;;;;0.45;0.45;;;;;;;10.49;48.31;103076.16;4992242;28;20030;-70
2023/01/28 01:39:20;;;;;;;0.40;0.40;;;;;;;10.71;47.42;103087.22;4992619;28;20031;-70
2023/01/28 01:41:45;;;;;;;0.35;0.35;;;;;;;10.71;47.57;103093.44;4992711;28;20092;-71
2023/01/28 01:44:48;;;;;;;0.40;0.40;;;;;;;10.68;47.43;103088.38;4993281;28;20042;-70
2023/01/28 01:47:16;;;;;;;0.32;0.32;;;;;;;10.52;47.82;103088.41;4984459;28;20506;-71
2023/01/28 01:49:43;;;;;;;0.25;0.25;;;;;;;10.79;47.18;103090.69;4987109;28;20380;-70
2023/01/28 01:52:16;;;;;;;0.30;0.30;;;;;;;10.53;46.79;103084.72;4992787;28;20038;-70
2023/01/28 01:54:45;;;;;;;0.50;0.50;;;;;;;10.59;46.54;103097.47;4993462;28;20056;-70
2023/01/28 01:57:15;;;;;;;0.30;0.30;;;;;;;10.86;46.94;103097.09;4992684;28;20046;-69
2023/01/28 01:59:43;;;;;;;0.20;0.20;;;;;;;10.15;46.98;103096.13;4992409;28;20384;-70
2023/01/28 02:02:11;;;;;;;0.20;0.20;;;;;;;10.60;46.75;103091.94;4992396;28;20050;-70
2023/01/28 02:04:40;;;;;;;0.40;0.40;;;;;;;10.62;46.52;103089.06;4992718;28;20482;-69
2023/01/28 02:07:07;;;;;;;0.43;0.43;;;;;;;10.76;46.04;103098.28;4992557;28;20034;-69
2023/01/28 02:09:35;;;;;;;0.30;0.30;;;;;;;10.83;46.06;103105.47;4978575;28;20027;-69
2023/01/28 02:12:10;;;;;;;0.20;0.20;;;;;;;10.48;47.08;103108.56;4972989;28;20527;-70
2023/01/28 02:14:43;;;;;;;0.20;0.20;;;;;;;10.46;46.45;103113.25;4990338;28;20582;-70
2023/01/28 02:17:08;;;;;;;0.40;0.40;;;;;;;10.69;45.84;103099.97;4993047;28;20524;-71
2023/01/28 02:19:43;;;;;;;0.30;0.30;;;;;;;10.85;46.11;103116.91;4992347;28;20042;-70
2023/01/28 02:22:25;;;;;;;0.20;0.20;;;;;;;10.72;46.67;103108.53;4992352;28;20089;-71
2023/01/28 02:25:08;;;;;;;0.20;0.20;;;;;;;10.63;46.22;103110.38;4992755;28;20138;-71
2023/01/28 02:27:55;;;;;;;0.30;0.30;;;;;;;10.94;45.86;103105.13;4992743;28;20073;-70
2023/01/28 02:30:35;;;;;;;0.30;0.30;;;;;;;10.63;46.03;103101.50;4992627;28;20045;-72
2023/01/28 02:33:17;;;;;;;0.25;0.25;;;;;;;10.80;45.78;103105.00;4992233;28;20107;-70
2023/01/28 02:35:49;;;;;;;0.22;0.22;;;;;;;10.81;45.88;103109.38;4992802;28;20430;-70
2023/01/28 02:38:25;;;;;;;0.30;0.30;;;;;;;10.96;46.00;103108.50;4992414;28;20558;-70
2023/01/28 02:41:05;;;;;;;0.30;0.30;;;;;;;10.52;45.93;103112.59;4991916;28;20046;-70
2023/01/28 02:43:39;;;;;;;0.47;0.47;;;;;;;10.55;46.60;103117.66;4992558;28;20034;-70
2023/01/28 02:48:57;;;;;;;0.32;0.32;;;;;;;10.42;46.04;103110.09;4992831;28;20041;-71
2023/01/28 02:51:49;;;;;;;0.32;0.32;;;;;;;10.71;45.93;103111.41;4991460;28;20059;-70
2023/01/28 02:54:26;;;;;;;0.30;0.30;;;;;;;10.72;45.97;103115.75;4950695;29;20047;-71
2023/01/28 02:57:07;;;;;;;0.22;0.22;;;;;;;10.75;46.10;103108.19;4934636;29;20138;-71
2023/01/28 02:59:41;;;;;;;0.20;0.20;;;;;;;10.41;46.19;103104.88;4950913;29;20043;-71
2023/01/28 03:02:19;;;;;;;0.30;0.30;;;;;;;10.50;46.75;103102.00;4950392;29;20047;-70
2023/01/28 03:05:01;;;;;;;0.35;0.35;;;;;;;10.57;45.66;103092.25;4954237;28;20035;-70
2023/01/28 03:07:31;;;;;;;0.22;0.22;;;;;;;10.66;45.33;103089.56;4950590;28;20039;-70
2023/01/28 03:10:03;;;;;;;0.30;0.30;;;;;;;10.20;45.77;103091.94;4950776;29;20511;-70
2023/01/28 03:38:32;;;;;;;0.25;0.25;;;;;;;9.99;46.99;103096.09;4991478;28;20049;-71
2023/01/28 03:41:00;;;;;;;0.50;0.50;;;;;;;10.32;46.17;103101.34;4986454;28;20055;-70
2023/01/28 03:43:25;;;;;;;0.40;0.40;;;;;;;10.33;46.37;103097.66;4983789;28;20069;-70
2023/01/28 03:45:51;;;;;;;0.38;0.38;;;;;;;10.44;46.27;103089.25;4991852;28;20491;-71
2023/01/28 03:48:18;;;;;;;0.30;0.30;;;;;;;10.49;45.95;103094.13;4991102;28;20034;-70
2023/01/28 03:50:44;;;;;;;0.20;0.20;;;;;;;10.64;46.01;103092.41;4990954;28;20538;-70
2023/01/28 03:53:13;;;;;;;0.30;0.30;;;;;;;10.66;45.52;103094.94;4991277;28;20238;-70
2023/01/28 03:55:38;;;;;;;0.30;0.30;;;;;;;10.44;45.57;103100.00;4991017;28;20541;-70
2023/01/28 03:58:04;;;;;;;0.20;0.20;;;;;;;10.52;46.07;103099.16;4990913;28;20030;-71
2023/01/28 04:00:31;;;;;;;0.30;0.30;;;;;;;10.57;45.86;103094.94;4991495;28;20018;-71
2023/01/28 04:02:57;;;;;;;0.30;0.30;;;;;;;10.71;45.46;103092.59;4993948;28;20054;-71
2023/01/28 04:05:24;;;;;;;0.30;0.30;;;;;;;10.54;45.35;103081.84;4994843;28;20045;-70
2023/01/28 04:07:53;;;;;;;0.40;0.40;;;;;;;10.34;45.81;103095.78;4992488;28;20116;-71
2023/01/28 04:10:18;;;;;;;0.20;0.20;;;;;;;10.54;45.08;103091.75;4994703;28;20254;-70
2023/01/28 04:12:43;;;;;;;0.28;0.28;;;;;;;10.65;45.72;103096.81;4994715;28;20030;-70
2023/01/28 04:15:14;;;;;;;0.30;0.30;;;;;;;10.42;46.05;103107.41;4994480;28;20122;-69
2023/01/28 04:17:47;;;;;;;0.30;0.30;;;;;;;10.07;46.26;103110.38;4994550;28;20050;-71
2023/01/28 04:20:12;;;;;;;0.20;0.20;;;;;;;10.17;46.42;103112.94;4994590;28;20057;-69
2023/01/28 04:22:38;;;;;;;0.30;0.30;;;;;;;9.85;47.54;103120.94;4994442;28;20038;-70
2023/01/28 04:25:04;;;;;;;0.30;0.30;;;;;;;8.69;50.98;103120.72;4994489;28;20025;-67
2023/01/28 04:27:29;;;;;;;0.30;0.30;;;;;;;8.64;51.14;103123.88;4995159;28;20057;-71
2023/01/28 04:29:54;;;;;;;0.47;0.45;;;;;;;8.64;51.59;103129.25;4994417;28;20053;-71
2023/01/28 04:32:20;;;;;;;0.30;0.30;;;;;;;9.43;49.44;103121.81;4994590;28;20126;-70
2023/01/28 04:34:45;;;;;;;0.32;0.32;;;;;;;9.77;48.23;103141.38;4994354;28;20117;-70
2023/01/28 04:37:10;;;;;;;0.30;0.30;;;;;;;9.99;47.83;103139.91;4994157;28;20038;-71
2023/01/28 04:39:36;;;;;;;0.30;0.30;;;;;;;10.18;47.19;103131.56;4994545;28;20081;-71
2023/01/28 04:42:01;;;;;;;0.40;0.40;;;;;;;9.75;48.65;103126.41;4994006;28;20054;-70
2023/01/28 04:44:26;;;;;;;0.30;0.30;;;;;;;9.40;49.43;103129.31;4994153;28;20039;-70
2023/01/28 04:46:52;;;;;;;0.25;0.25;;;;;;;9.80;48.06;103126.78;4994294;28;20189;-70
2023/01/28 04:49:17;;;;;;;0.32;0.32;;;;;;;9.19;49.66;103128.91;4994304;28;20395;-70
2023/01/28 04:51:43;;;;;;;0.30;0.30;;;;;;;9.79;48.19;103122.41;4993106;28;20030;-70
2023/01/28 04:54:08;;;;;;;0.25;0.25;;;;;;;10.00;47.42;103114.75;4993513;28;20503;-70
2023/01/28 04:56:33;;;;;;;0.30;0.30;;;;;;;10.10;46.83;103117.31;4998075;28;20039;-70
2023/01/28 04:58:59;;;;;;;0.40;0.40;;;;;;;10.28;46.21;103115.31;4994170;28;20503;-70
2023/01/28 05:01:25;;;;;;;0.40;0.40;;;;;;;10.46;45.87;103105.19;4991993;28;20117;-70
2023/01/28 05:03:50;;;;;;;0.40;0.40;;;;;;;10.29;46.30;103108.91;4993913;28;20046;-70
2023/01/28 05:06:15;;;;;;;0.30;0.30;;;;;;;10.05;46.88;103101.66;4993381;28;20129;-70
2023/01/28 05:08:41;;;;;;;0.20;0.20;;;;;;;9.99;46.98;103099.63;4992943;28;20281;-70
2023/01/28 05:11:06;;;;;;;0.43;0.43;;;;;;;10.08;47.01;103103.16;4993357;28;20063;-71
2023/01/28 05:13:32;;;;;;;0.45;0.45;;;;;;;9.86;47.36;103106.50;4992693;28;20129;-71
2023/01/28 05:15:57;;;;;;;0.28;0.28;;;;;;;9.64;47.95;103105.25;5008718;28;20069;-70
2023/01/28 05:18:23;;;;;;;0.20;0.20;;;;;;;9.62;47.95;103101.91;4979534;28;20046;-71
2023/01/28 05:20:48;;;;;;;0.32;0.32;;;;;;;9.79;47.78;103100.09;4974300;28;20046;-71
2023/01/28 05:23:14;;;;;;;0.30;0.30;;;;;;;10.11;47.11;103100.16;4988822;28;20047;-70
2023/01/28 05:25:39;;;;;;;0.20;0.20;;;;;;;10.00;46.95;103105.84;4973597;28;20038;-71
2023/01/28 05:28:05;;;;;;;0.40;0.40;;;;;;;9.19;48.77;103126.22;4984628;28;20447;-70
2023/01/28 05:30:30;;;;;;;0.30;0.30;;;;;;;9.22;48.88;103128.59;4993426;28;20089;-71
2023/01/28 05:32:56;;;;;;;0.28;0.28;;;;;;;10.06;47.08;103121.28;4992977;28;20073;-71
2023/01/28 05:35:22;;;;;;;0.30;0.30;;;;;;;9.92;46.65;103113.88;4993377;28;20502;-70
2023/01/28 05:37:47;;;;;;;0.20;0.20;;;;;;;10.05;46.44;103120.44;4993305;28;20093;-70
2023/01/28 05:40:13;;;;;;;0.30;0.30;;;;;;;9.98;46.24;103129.34;4993145;28;20030;-71
2023/01/28 05:42:38;;;;;;;0.38;0.38;;;;;;;9.73;46.50;103123.91;4993642;28;20042;-71
2023/01/28 05:45:04;;;;;;;0.50;0.50;;;;;;;9.68;47.03;103112.84;4993211;28;20417;-70
2023/01/28 05:47:30;;;;;;;0.25;0.25;;;;;;;9.64;47.39;103116.84;4992799;28;20137;-70
2023/01/28 05:49:55;;;;;;;0.30;0.30;;;;;;;9.40;47.41;103111.38;4992908;28;20138;-70
2023/01/28 05:52:20;;;;;;;0.40;0.40;;;;;;;9.60;47.60;103103.91;4996104;28;20111;-71
2023/01/28 05:54:46;;;;;;;0.25;0.25;;;;;;;9.77;46.73;103110.16;4975881;28;20035;-71
2023/01/28 05:57:11;;;;;;;0.40;0.40;;;;;;;9.13;48.12;103114.28;4973278;28;20039;-71
2023/01/28 05:59:37;;;;;;;0.30;0.30;;;;;;;9.72;46.87;103111.50;4973395;28;20043;-70
2023/01/28 06:02:02;;;;;;;0.40;0.40;;;;;;;9.80;47.15;103107.16;4973274;28;20618;-70
2023/01/28 06:04:27;;;;;;;0.30;0.30;;;;;;;9.34;47.37;103106.66;4973231;28;20042;-71
2023/01/28 06:06:53;;;;;;;0.30;0.30;;;;;;;8.32;50.63;103112.91;4973837;28;20050;-70
2023/01/28 06:09:18;;;;;;;0.20;0.20;;;;;;;8.66;50.13;103104.97;4972981;28;20134;-69
2023/01/28 06:11:44;;;;;;;0.30;0.30;;;;;;;9.21;48.57;103100.91;4973092;28;20125;-70
2023/01/28 06:14:10;;;;;;;0.40;0.40;;;;;;;9.50;47.31;103092.47;4973026;28;20038;-70
2023/01/28 06:16:35;;;;;;;0.20;0.20;;;;;;;9.42;47.16;103087.91;4972895;28;20057;-70
2023/01/28 06:19:01;;;;;;;0.30;0.30;;;;;;;8.34;50.22;103110.06;4973619;28;20047;-70
2023/01/28 06:21:26;;;;;;;0.20;0.20;;;;;;;8.18;50.03;103107.22;4972842;28;20515;-71
2023/01/28 06:23:52;;;;;;;0.30;0.30;;;;;;;9.46;47.01;103097.31;4972981;28;20073;-71
2023/01/28 06:26:17;;;;;;;0.30;0.30;;;;;;;9.71;46.67;103104.44;4971947;28;20030;-72
2023/01/28 06:28:43;;;;;;;0.20;0.20;;;;;;;9.89;46.39;103115.03;4988534;28;20394;-72
2023/01/28 06:31:08;;;;;;;0.20;0.20;;;;;;;9.83;45.99;103118.38;4990871;28;20038;-71
2023/01/28 06:33:34;;;;;;;0.30;0.30;;;;;;;9.52;47.41;103114.63;4992700;28;20666;-70
2023/01/28 06:36:02;;;;;;;0.35;0.35;;;;;;;9.04;48.13;103112.56;4992040;28;20030;-71
2023/01/28 06:38:28;;;;;;;0.30;0.30;;;;;;;8.73;48.62;103112.22;4991928;28;20046;-71
2023/01/28 06:40:54;;;;;;;0.28;0.28;;;;;;;8.50;49.87;103121.78;4992035;28;20600;-70
2023/01/28 06:43:26;;;;;;;0.20;0.20;;;;;;;9.31;47.34;103123.09;4990369;28;20038;-70
2023/01/28 06:45:55;;;;;;;0.32;0.32;;;;;;;9.25;47.86;103130.94;4992163;28;20038;-71
2023/01/28 06:48:20;;;;;;;0.30;0.30;;;;;;;9.53;46.75;103127.03;4993149;28;20450;-70
2023/01/28 06:50:46;;;;;;;0.30;0.30;;;;;;;9.81;46.17;103133.81;4978119;28;20045;-71
2023/01/28 06:53:12;;;;;;;0.30;0.30;;;;;;;9.50;47.45;103135.41;4992456;28;20076;-71
2023/01/28 06:55:38;;;;;;;0.40;0.40;;;;;;;8.90;48.91;103141.81;4992139;28;20061;-70
2023/01/28 06:58:03;;;;;;;0.35;0.35;;;;;;;9.14;47.00;103133.91;4992603;28;20030;-71
2023/01/28 07:00:28;;;;;;;0.40;0.40;;;;;;;9.33;47.76;103141.72;4990986;28;20035;-71
2023/01/28 07:02:55;;;;;;;0.20;0.20;;;;;;;9.68;46.40;103141.50;4986074;28;20177;-70
2023/01/28 07:05:21;;;;;;;0.30;0.30;;;;;;;9.25;47.90;103137.16;4988068;28;20589;-71
2023/01/28 07:07:46;;;;;;;0.30;0.30;;;;;;;7.79;51.05;103133.44;4989773;28;20075;-70
2023/01/28 07:10:12;;;;;;;0.30;0.30;;;;;;;8.18;50.54;103129.50;4991148;28;20034;-71
2023/01/28 07:12:38;;;;;;;0.30;0.30;;;;;;;9.08;48.67;103142.59;4991495;28;20038;-70
2023/01/28 07:15:04;;;;;;;0.40;0.40;;;;;;;8.91;48.46;103146.16;4991229;28;20072;-71
2023/01/28 07:17:29;;;;;;;0.38;0.38;;;;;;;9.41;47.72;103147.13;4988424;28;20046;-71
2023/01/28 07:19:55;;;;;;;0.30;0.30;;;;;;;8.78;48.98;103146.59;4991239;28;20046;-71
2023/01/28 07:22:20;;;;;;;0.43;0.43;;;;;;;8.63;49.98;103150.81;4989428;28;20178;-71
2023/01/28 07:24:46;;;;;;;0.40;0.40;;;;;;;9.25;47.80;103153.25;4990863;28;20030;-72
2023/01/28 07:27:11;;;;;;;0.38;0.38;;;;;;;8.81;49.38;103159.66;4991171;28;20152;-72
2023/01/28 07:29:36;;;;;;;0.20;0.20;;;;;;;7.82;51.31;103155.41;4990720;28;20030;-71
2023/01/28 07:32:03;;;;;;;0.32;0.32;;;;;;;8.30;49.97;103163.13;4988010;28;20410;-70
2023/01/28 07:34:29;;;;;;;0.32;0.32;;;;;;;8.71;49.42;103170.50;4990424;28;20034;-70
2023/01/28 07:36:54;;;;;;;0.30;0.30;;;;;;;8.77;48.82;103171.72;4993288;28;20101;-70
2023/01/28 07:39:19;;;;;;;0.30;0.30;;;;;;;8.60;49.86;103172.59;4994841;28;20046;-70
2023/01/28 07:41:46;;;;;;;0.30;0.30;;;;;;;8.74;49.50;103174.72;4985005;28;20038;-70
2023/01/28 07:44:11;;;;;;;0.30;0.30;;;;;;;8.24;50.96;103184.28;4989142;28;20129;-69
2023/01/28 07:46:37;;;;;;;0.30;0.30;;;;;;;9.44;47.96;103181.66;4985758;28;20047;-70
2023/01/28 07:49:02;;;;;;;0.30;0.30;;;;;;;8.70;49.33;103178.69;4988658;28;20279;-71
2023/01/28 07:51:28;;;;;;;0.30;0.30;;;;;;;9.26;47.46;103180.91;4988419;28;20114;-70
2023/01/28 07:53:53;;;;;;;0.30;0.30;;;;;;;9.07;48.88;103176.63;4986202;28;20046;-71
2023/01/28 07:56:18;;;;;;;0.30;0.30;;;;;;;9.36;47.63;103182.47;4986107;28;20042;-70
2023/01/28 07:58:44;;;;;;;0.30;0.30;;;;;;;10.01;46.54;103180.88;4987883;28;20039;-71
2023/01/28 08:01:09;;;;;;;0.20;0.20;;;;;;;8.96;48.36;103178.72;4988306;28;20027;-70
2023/01/28 08:03:34;;;;;;;0.22;0.22;;;;;;;8.94;48.81;103176.22;4985339;28;20417;-73
2023/01/28 08:06:00;;;;;;;0.30;0.30;;;;;;;9.92;46.46;103165.75;4985250;28;20042;-70
2023/01/28 08:08:28;;;;;;;0.20;0.20;;;;;;;10.00;46.27;103165.78;4985019;28;20042;-71
2023/01/28 08:10:54;;;;;;;0.20;0.20;;;;;;;9.99;46.19;103168.59;4986501;28;20031;-71
2023/01/28 08:13:19;;;;;;;0.30;0.30;;;;;;;9.55;47.72;103173.34;4987069;28;20073;-71
2023/01/28 08:15:45;;;;;;;0.32;0.32;;;;;;;9.90;46.69;103170.44;4987460;28;20064;-73
2023/01/28 08:18:12;;;;;;;0.20;0.20;;;;;;;9.23;48.18;103176.72;4991604;28;20449;-71
2023/01/28 08:20:38;;;;;;;0.22;0.22;;;;;;;9.61;47.52;103175.41;4993917;28;20039;-71
2023/01/28 08:23:15;;;;;;;0.32;0.32;;;;;;;9.64;47.29;103175.91;4994024;28;20066;-70
2023/01/28 08:25:40;;;;;;;0.30;0.30;;;;;;;9.57;47.39;103164.13;4993556;28;20121;-70
2023/01/28 08:28:06;;;;;;;0.40;0.40;;;;;;;9.61;47.46;103168.16;4993574;28;20116;-69
2023/01/28 08:30:33;;;;;;;0.30;0.30;;;;;;;9.52;47.47;103165.59;4998597;28;20498;-71
2023/01/28 08:32:59;;;;;;;0.35;0.35;;;;;;;9.37;47.99;103167.22;5003730;28;20045;-70
2023/01/28 08:35:25;;;;;;;0.20;0.20;;;;;;;9.48;47.68;103174.97;4993437;28;20510;-70
2023/01/28 08:37:52;;;;;;;0.20;0.20;;;;;;;9.40;48.09;103174.94;5008996;28;20182;-71
2023/01/28 08:40:17;;;;;;;0.30;0.30;;;;;;;9.37;48.42;103167.22;4993212;28;20065;-70
2023/01/28 08:42:51;;;;;;;0.38;0.38;;;;;;;9.56;48.00;103172.34;4991946;28;20288;-71
2023/01/28 08:45:17;;;;;;;0.30;0.30;;;;;;;9.43;48.33;103186.22;4993244;28;20407;-71
2023/01/28 08:47:47;;;;;;;0.30;0.30;;;;;;;9.59;48.20;103199.69;4993183;28;20117;-70
2023/01/28 08:50:13;;;;;;;0.30;0.30;;;;;;;9.56;48.14;103202.72;4990777;28;20089;-71
2023/01/28 08:52:38;;;;;;;0.30;0.30;;;;;;;9.74;47.81;103202.63;4993577;28;20030;-71
2023/01/28 08:55:04;;;;;;;0.22;0.22;;;;;;;9.82;48.04;103212.53;4993207;28;20030;-68
2023/01/28 08:57:29;;;;;;;0.20;0.20;;;;;;;9.88;47.50;103196.63;4992614;28;20042;-71
2023/01/28 08:59:54;;;;;;;0.22;0.22;;;;;;;9.92;47.65;103208.72;4993085;28;20073;-70
2023/01/28 09:02:21;;;;;;;0.20;0.20;;;;;;;9.88;47.92;103215.44;4983646;28;20132;-72
2023/01/28 09:04:46;;;;;;;0.35;0.35;;;;;;;10.03;47.78;103212.94;4987775;28;20351;-71
2023/01/28 09:07:12;;;;;;;0.20;0.20;;;;;;;10.00;47.36;103214.13;4989578;28;20030;-71
2023/01/28 09:09:37;;;;;;;0.40;0.40;;;;;;;9.99;47.46;103208.91;4990381;28;20027;-70
2023/01/28 09:12:04;;;;;;;0.20;0.20;;;;;;;10.06;47.11;103218.84;4989534;28;20030;-71
2023/01/28 09:14:30;;;;;;;0.40;0.40;;;;;;;10.23;46.90;103219.75;4989205;28;20463;-71
2023/01/28 09:16:55;;;;;;;0.38;0.38;;;;;;;10.42;46.43;103222.97;4990126;28;20141;-71
2023/01/28 09:19:21;;;;;;;0.30;0.30;;;;;;;10.17;46.49;103221.25;4990157;28;20121;-71
2023/01/28 09:21:46;;;;;;;0.30;0.30;;;;;;;10.46;46.33;103232.38;4989998;28;20044;-70
2023/01/28 09:24:11;;;;;;;0.30;0.30;;;;;;;10.43;46.41;103230.03;4987923;28;20137;-71
2023/01/28 09:26:37;;;;;;;0.28;0.28;;;;;;;10.46;45.11;103243.13;4968235;28;20123;-70
2023/01/28 09:29:02;;;;;;;0.20;0.20;;;;;;;10.36;45.47;103229.00;4989674;28;20034;-71
2023/01/28 09:31:27;;;;;;;0.30;0.30;;;;;;;9.85;46.17;103242.59;4988925;28;20061;-72
2023/01/28 09:33:56;;;;;;;0.20;0.20;;;;;;;9.92;46.37;103245.47;5003941;28;20054;-71
2023/01/28 09:36:22;;;;;;;0.30;0.30;;;;;;;9.95;47.03;103245.13;4989356;28;20042;-71
2023/01/28 09:38:47;;;;;;;0.20;0.20;;;;;;;10.14;46.16;103244.94;4984101;28;20039;-71
2023/01/28 09:41:39;;;;;;;0.20;0.20;;;;;;;10.46;46.29;103234.22;4989291;28;20077;-72
2023/01/28 09:44:22;;;;;;;0.20;0.20;;;;;;;10.61;46.45;103237.97;4987478;28;20053;-72
2023/01/28 09:46:47;;;;;;;0.35;0.35;;;;;;;10.13;45.97;103238.69;4989081;28;20111;-71
2023/01/28 09:49:37;;;;;;;0.38;0.38;;;;;;;10.14;46.61;103244.94;4988705;28;20045;-70
2023/01/28 09:52:03;;;;;;;0.40;0.40;;;;;;;10.41;46.06;103242.81;4989842;28;20133;-71
2023/01/28 09:54:39;;;;;;;0.20;0.20;;;;;;;9.63;47.90;103251.25;4988560;28;20678;-71
2023/01/28 09:57:12;;;;;;;0.22;0.22;;;;;;;10.50;46.43;103244.50;4972847;28;20034;-71
2023/01/28 09:59:37;;;;;;;0.30;0.30;;;;;;;9.91;46.41;103249.16;4988225;28;20514;-71
2023/01/28 10:02:21;;;;;;;0.30;0.30;;;;;;;10.84;44.80;103247.03;4988519;28;20034;-72
2023/01/28 10:04:56;;;;;;;0.30;0.30;;;;;;;10.87;45.24;103244.00;4987870;28;20427;-71
2023/01/28 10:07:40;;;;;;;0.32;0.32;;;;;;;10.09;46.69;103252.59;4988440;28;20036;-71
2023/01/28 10:10:16;;;;;;;0.25;0.25;;;;;;;10.03;46.88;103250.53;4985121;28;20026;-69
2023/01/28 10:13:08;;;;;;;0.30;0.30;;;;;;;10.63;46.40;103246.69;4988618;28;20053;-71
2023/01/28 10:15:55;;;;;;;0.20;0.20;;;;;;;10.32;46.78;103241.09;4984244;28;20042;-71
2023/01/28 10:18:39;;;;;;;0.30;0.30;;;;;;;10.49;46.65;103250.88;4974204;28;20066;-70
2023/01/28 10:21:11;;;;;;;0.28;0.28;;;;;;;10.00;46.50;103250.88;4982078;28;20038;-71
2023/01/28 10:23:50;;;;;;;0.20;0.20;;;;;;;8.94;49.01;103243.25;4981783;28;20237;-69
2023/01/28 10:26:37;;;;;;;0.30;0.30;;;;;;;9.07;48.82;103238.31;4981907;28;20565;-71
2023/01/28 10:29:14;;;;;;;0.28;0.28;;;;;;;9.66;47.74;103232.97;4981061;28;20288;-70
2023/01/28 10:32:11;;;;;;;0.25;0.25;;;;;;;10.39;46.44;103236.75;4981551;28;21182;-69
2023/01/28 10:34:37;;;;;;;0.30;0.30;;;;;;;10.53;45.59;103236.06;4946524;28;20046;-71
2023/01/28 10:37:02;;;;;;;0.20;0.20;;;;;;;10.77;45.08;103231.75;4943630;29;20127;-71
2023/01/28 10:39:28;;;;;;;0.20;0.20;;;;;;;10.25;45.96;103226.66;4942892;29;20043;-70
2023/01/28 10:41:54;;;;;;;0.30;0.30;;;;;;;10.29;45.74;103222.63;4943275;29;20176;-70
2023/01/28 10:44:36;;;;;;;0.40;0.40;;;;;;;9.86;47.07;103230.88;4942875;29;20159;-71
2023/01/28 10:47:19;;;;;;;0.30;0.30;;;;;;;9.47;49.90;103219.75;4936450;29;20043;-72
2023/01/28 10:49:51;;;;;;;0.20;0.20;;;;;;;9.00;50.18;103209.59;4941639;29;20805;-71
2023/01/28 10:52:17;;;;;;;0.20;0.20;;;;;;;9.29;49.41;103207.44;4934185;29;20035;-70
2023/01/28 10:54:43;;;;;;;0.20;0.20;;;;;;;9.62;49.21;103193.16;4924154;29;20071;-71
2023/01/28 10:57:12;;;;;;;0.20;0.20;;;;;;;10.36;47.83;103186.00;4922751;29;20571;-71
2023/01/28 10:59:41;;;;;;;0.22;0.22;;;;;;;10.38;47.34;103178.63;4923296;29;20115;-70
2023/01/28 11:02:27;;;;;;;0.28;0.28;;;;;;;11.10;45.59;103169.69;4924240;29;20044;-71
2023/01/28 11:05:21;;;;;;;0.30;0.30;;;;;;;10.71;46.03;103160.66;4923391;29;20138;-72
2023/01/28 11:07:50;;;;;;;0.30;0.30;;;;;;;10.20;46.62;103147.53;4914537;29;20036;-72
2023/01/28 11:10:45;;;;;;;0.30;0.30;;;;;;;10.69;47.59;103143.00;4925972;28;20078;-71
2023/01/28 11:13:20;;;;;;;0.40;0.40;;;;;;;9.41;49.32;103142.59;4924125;29;20036;-70
2023/01/28 11:16:05;;;;;;;0.38;0.38;;;;;;;10.21;47.79;103139.31;4925482;29;20040;-72
2023/01/28 11:18:39;;;;;;;0.20;0.20;;;;;;;10.27;46.93;103140.47;4923927;29;20127;-71
2023/01/28 11:21:17;;;;;;;0.35;0.22;;;;;;;10.30;47.09;103124.03;4924486;29;20071;-70
2023/01/28 11:23:52;;;;;;;0.22;0.22;;;;;;;10.35;47.24;103111.78;4924310;29;20071;-70
2023/01/28 11:26:21;;;;;;;0.20;0.20;;;;;;;10.67;46.76;103118.97;4924648;29;20416;-71
2023/01/28 11:28:47;;;;;;;0.25;0.25;;;;;;;10.79;45.67;103111.41;4924073;29;20086;-70
2023/01/28 11:31:15;;;;;;;0.38;0.38;;;;;;;10.61;46.01;103109.72;4925902;29;20055;-70
2023/01/28 11:33:56;;;;;;;0.20;0.20;;;;;;;11.10;45.52;103098.88;4924542;29;20048;-70
2023/01/28 11:36:24;;;;;;;0.20;0.20;;;;;;;11.17;44.76;103115.97;4923652;29;20039;-70
2023/01/28 11:38:55;;;;;;;0.30;0.30;;;;;;;11.48;44.46;103109.63;4924401;29;20066;-71
2023/01/28 11:41:38;;;;;;;0.22;0.22;;;;;;;11.71;43.51;103115.09;4923371;29;20036;-73
2023/01/28 11:44:13;;;;;;;0.30;0.30;;;;;;;11.35;44.53;103130.06;4924208;29;20074;-70
2023/01/28 11:46:57;;;;;;;0.22;0.22;;;;;;;11.27;44.94;103133.63;4923848;29;20118;-72
2023/01/28 11:49:36;;;;;;;0.30;0.30;;;;;;;11.86;44.22;103137.56;4948391;28;20034;-72
2023/01/28 11:52:37;;;;;;;0.52;0.52;;;;;;;11.17;44.85;103141.03;4984733;28;20749;-72
2023/01/28 11:55:14;;;;;;;0.30;0.30;;;;;;;11.22;44.90;103127.09;4946096;28;20520;-70
2023/01/28 11:57:44;;;;;;;0.30;0.30;;;;;;;11.80;43.43;103122.13;4962366;28;20051;-70
2023/01/28 12:00:34;;;;;;;0.45;0.45;;;;;;;12.06;43.53;103127.16;4962586;28;20595;-81
2023/01/28 12:03:19;;;;;;;0.38;0.38;;;;;;;11.64;44.37;103135.63;4970926;28;20083;-75
2023/01/28 12:05:54;;;;;;;0.25;0.25;;;;;;;11.74;43.42;103138.13;4970067;28;20042;-75
2023/01/28 12:08:27;;;;;;;0.38;0.38;;;;;;;12.11;43.22;103127.47;4969917;28;20035;-75